Data for 07/16/2013

Time Sea-Level Adjusted Pressure Absolute Pressure Temperature Relative Humidity Dew Point   
(mb) (inHg) (mb) (inHg) (C) (F) (%) (C) (F)
00:05 1020 30.12 850 25.1 18.7 65.7 49 7.9 46.1
00:10 1020 30.12 850 25.1 18.4 65.2 50 8 46.5
00:15 1020 30.12 850 25.1 18.3 65 52 8.5 47.3
00:20 1021 30.15 850 25.1 17.9 64.3 54 8.7 47.7
00:25 1021 30.15 850 25.1 17.6 63.6 57 9 48.3
00:30 1021 30.15 850 25.1 17.3 63.1 58 9.2 48.5
00:35 1021 30.15 850 25.1 16.9 62.5 61 9.5 49.1
00:40 1021 30.15 850 25.1 16.8 62.3 60 9.1 48.4
00:45 1021 30.15 850 25.1 16.6 62 61 9.1 48.4
00:50 1021 30.15 850 25.1 16.6 61.8 61 9.1 48.4
00:55 1021 30.15 850 25.1 16.6 61.8 61 9.2 48.5
01:00 1021 30.15 850 25.1 16.5 61.7 61 9.1 48.3
01:05 1021 30.15 850 25.1 16.6 61.8 61 9.1 48.4
01:10 1021 30.15 850 25.1 16.5 61.7 62 9.1 48.5
01:15 1021 30.15 850 25.1 16.4 61.5 62 9.1 48.4
01:20 1021 30.15 850 25.1 16.4 61.5 62 9.1 48.4
01:25 1021 30.15 851 25.13 16.3 61.3 62 9.1 48.4
01:30 1021 30.15 851 25.13 16.3 61.3 63 9.2 48.5
01:35 1022 30.18 851 25.13 16 60.8 63 9.1 48.4
01:40 1022 30.18 851 25.13 15.9 60.6 64 9.1 48.3
01:45 1022 30.18 851 25.13 16 60.7 65 9.4 48.9
01:50 1022 30.18 851 25.13 15.9 60.6 64 9.1 48.5
01:55 1022 30.18 851 25.13 15.7 60.2 64 9 48.2
02:00 1022 30.18 851 25.13 15.6 60 64 8.9 48
02:05 1022 30.18 851 25.13 15.5 59.9 65 8.9 48
02:10 1022 30.18 851 25.13 15.5 59.9 69 9.9 49.8
02:15 1022 30.18 851 25.13 15.3 59.5 66 9 48.2
02:20 1022 30.18 851 25.13 15.1 59.3 66 8.8 47.9
02:25 1022 30.18 851 25.13 15.1 59.1 66 8.8 47.8
02:30 1022 30.18 851 25.13 14.9 58.7 66 8.7 47.7
02:35 1022 30.18 851 25.13 14.7 58.4 66 8.4 47.1
02:40 1022 30.18 851 25.13 14.9 58.8 64 8.2 46.8
02:45 1022 30.18 851 25.13 14.9 58.7 65 8.3 47
02:50 1022 30.18 851 25.13 14.3 57.8 66 8.1 46.7
02:55 1022 30.18 851 25.13 14.5 58.1 65 8.1 46.6
03:00 1022 30.18 851 25.13 14.4 58 66 8.3 46.9
03:05 1022 30.18 851 25.13 14.4 57.9 66 8.2 46.7
03:10 1022 30.18 851 25.13 14.4 58 66 8.1 46.6
03:15 1022 30.18 851 25.13 14.5 58 66 8.3 46.9
03:20 1022 30.18 851 25.13 14.4 57.9 66 8.2 46.8
03:25 1022 30.18 851 25.13 14.2 57.5 68 8.4 47.1
03:30 1022 30.18 851 25.13 14 57.2 67 8 46.5
03:35 1022 30.18 851 25.13 14.3 57.8 64 7.6 45.7
03:40 1022 30.18 851 25.13 14.8 58.7 60 7.3 45.1
03:45 1022 30.18 851 25.13 15.1 59.1 64 8.3 46.9
03:50 1022 30.18 851 25.13 14.2 57.6 66 8 46.4
03:55 1022 30.18 852 25.16 13.8 56.9 68 8.2 46.7
04:00 1023 30.21 852 25.16 13.4 56 71 8.2 46.8
04:05 1023 30.21 852 25.16 13 55.5 73 8.3 46.9
04:10 1023 30.21 852 25.16 13 55.3 73 8.3 46.9
04:15 1023 30.21 852 25.16 13 55.4 73 8.3 46.9
04:20 1023 30.21 852 25.16 13 55.5 73 8.3 47
04:25 1023 30.21 852 25.16 13 55.4 73 8.3 47
04:30 1023 30.21 852 25.16 12.9 55.1 73 8.2 46.8
04:35 1023 30.21 852 25.16 13 55.4 68 7.2 44.9
04:40 1023 30.21 852 25.16 14.2 57.5 61 6.9 44.4
04:45 1023 30.21 852 25.16 14.6 58.4 60 7 44.6
04:50 1023 30.21 852 25.16 14.6 58.3 60 7 44.6
04:55 1023 30.21 852 25.16 14.5 58.2 60 6.8 44.3
05:00 1023 30.21 852 25.16 14.5 58.1 60 6.8 44.3
05:05 1023 30.21 852 25.16 14.3 57.8 61 6.9 44.5
05:10 1023 30.21 852 25.16 14.1 57.5 61 6.9 44.4
05:15 1023 30.21 852 25.16 14 57.2 62 6.9 44.4
05:20 1023 30.21 853 25.19 13.9 57.1 62 6.7 44.1
05:25 1023 30.21 853 25.19 13.9 57 61 6.6 44
05:30 1023 30.21 853 25.19 13.7 56.7 62 6.7 44.1
05:35 1023 30.21 853 25.19 13.6 56.5 62 6.5 43.7
05:40 1023 30.21 853 25.19 13.6 56.4 63 6.6 43.9
05:45 1024 30.24 853 25.19 13.5 56.3 62 6.5 43.7
05:50 1023 30.21 853 25.19 13.5 56.4 62 6.4 43.6
05:55 1023 30.21 853 25.19 13.6 56.5 62 6.5 43.6
06:00 1023 30.21 853 25.19 13.7 56.7 62 6.5 43.8
06:05 1023 30.21 853 25.19 13.7 56.7 61 6.5 43.7
06:10 1024 30.24 853 25.19 13.8 56.8 62 6.6 44
06:15 1024 30.24 853 25.19 13.8 56.8 62 6.7 44
06:20 1024 30.24 853 25.19 13.9 57 61 6.6 43.9
06:25 1024 30.24 853 25.19 14 57.2 61 6.7 44.1
06:30 1024 30.24 853 25.19 14 57.2 61 6.7 44.1
06:35 1024 30.24 853 25.19 14 57.2 61 6.8 44.2
06:40 1024 30.24 853 25.19 14.1 57.4 62 7 44.6
06:45 1024 30.24 853 25.19 14 57.1 63 7 44.6
06:50 1024 30.24 853 25.19 14 57.2 62 6.9 44.5
06:55 1024 30.24 853 25.19 14.2 57.6 61 6.9 44.5
07:00 1024 30.24 853 25.19 14.4 57.9 61 7.1 44.8
07:05 1024 30.24 853 25.19 14.7 58.4 60 7 44.6
07:10 1024 30.24 853 25.19 14.9 58.9 59 7.2 44.9
07:15 1024 30.24 853 25.19 15.2 59.3 59 7.4 45.3
07:20 1024 30.24 853 25.19 15.2 59.3 59 7.3 45.1
07:25 1024 30.24 853 25.19 15.3 59.5 58 7.2 45
07:30 1024 30.24 853 25.19 15.3 59.5 58 7.1 44.9
07:35 1024 30.24 853 25.19 15.4 59.7 58 7.2 45
07:40 1024 30.24 853 25.19 15.5 59.9 57 7.2 44.9
07:45 1024 30.24 853 25.19 15.4 59.7 57 7 44.6
07:50 1024 30.24 853 25.19 15.4 59.7 58 7.2 45
07:55 1024 30.24 853 25.19 15.4 59.8 57 7.1 44.8
08:00 1024 30.24 853 25.19 15.6 60 56 7 44.7
08:05 1024 30.24 853 25.19 15.7 60.3 55 6.8 44.2
08:10 1024 30.24 853 25.19 16 60.7 55 7.1 44.8
08:15 1024 30.24 853 25.19 15.7 60.3 56 7.1 44.7
08:20 1024 30.24 853 25.19 15.7 60.3 54 6.7 44
08:25 1024 30.24 853 25.19 16.1 60.9 53 6.7 44
08:30 1024 30.24 853 25.19 16.4 61.6 50 6.2 43.2
08:35 1024 30.24 853 25.19 16.8 62.3 48 5.9 42.6
08:40 1024 30.24 853 25.19 16.7 62 48 5.8 42.5
08:45 1024 30.24 853 25.19 16.7 62.1 46 5.3 41.5
08:50 1024 30.24 853 25.19 16.9 62.4 44 4.8 40.6
08:55 1024 30.24 853 25.19 17 62.6 44 4.7 40.4
09:00 1024 30.24 853 25.19 17.2 63 43 4.6 40.3
09:05 1024 30.24 853 25.19 17.2 62.9 43 4.6 40.3
09:10 1024 30.24 853 25.19 17.4 63.4 44 5 41
09:15 1024 30.24 853 25.19 17.6 63.7 45 5.7 42.3
09:20 1024 30.24 853 25.19 17.7 63.9 45 5.7 42.2
09:25 1024 30.24 853 25.19 17.9 64.1 45 5.8 42.4
09:30 1024 30.24 853 25.19 17.8 64.1 45 5.7 42.3
09:35 1024 30.24 853 25.19 17.7 63.9 45 5.9 42.6
09:40 1024 30.24 853 25.19 17.6 63.7 46 5.9 42.6
09:45 1024 30.24 853 25.19 17.7 63.8 46 5.9 42.7
09:50 1024 30.24 853 25.19 17.4 63.3 46 5.9 42.7
09:55 1024 30.24 854 25.22 17.4 63.4 48 6.4 43.5
10:00 1024 30.24 853 25.19 17.4 63.3 48 6.4 43.5
10:05 1024 30.24 853 25.19 17.2 62.9 48 6.2 43.2
10:10 1024 30.24 854 25.22 17.1 62.9 48 6.3 43.3
10:15 1024 30.24 853 25.19 17.2 63 48 6.4 43.5
10:20 1024 30.24 853 25.19 17.2 63 48 6.3 43.3
10:25 1024 30.24 853 25.19 17.1 62.8 48 6.2 43.2
10:30 1024 30.24 853 25.19 17.2 62.9 48 6 42.9
10:35 1024 30.24 853 25.19 17.2 63 48 6.1 43
10:40 1024 30.24 853 25.19 17.1 62.8 48 6.3 43.3
10:45 1024 30.24 853 25.19 17.2 62.9 48 6.1 42.9
10:50 1024 30.24 853 25.19 17.1 62.9 48 6.3 43.3
10:55 1024 30.24 853 25.19 17.2 63 48 6.3 43.4
11:00 1024 30.24 853 25.19 17.2 62.9 48 6.3 43.3
11:05 1024 30.24 853 25.19 17.1 62.9 49 6.3 43.4
11:10 1024 30.24 853 25.19 17.3 63.1 48 6.3 43.3
11:15 1024 30.24 853 25.19 17.3 63.1 49 6.5 43.7
11:20 1024 30.24 853 25.19 17.2 63 49 6.5 43.6
11:25 1024 30.24 853 25.19 17.1 62.8 49 6.3 43.4
11:30 1024 30.24 853 25.19 17 62.5 48 6 42.8
11:35 1024 30.24 853 25.19 16.9 62.3 50 6.6 43.9
11:40 1024 30.24 853 25.19 16.4 61.5 56 7.6 45.6
11:45 1024 30.24 853 25.19 15.6 60.1 61 8.3 46.9
11:50 1024 30.24 853 25.19 15.4 59.7 60 7.9 46.1
11:55 1024 30.24 853 25.19 15.7 60.3 57 7.4 45.3
12:00 1024 30.24 853 25.19 16.3 61.4 54 7.1 44.8
12:05 1024 30.24 853 25.19 16.7 62.1 52 6.8 44.3
12:10 1024 30.24 853 25.19 16.9 62.5 51 6.8 44.3
12:15 1024 30.24 853 25.19 16.9 62.4 50 6.5 43.7
12:20 1024 30.24 853 25.19 16.8 62.2 51 6.7 44
12:25 1023 30.21 853 25.19 16.8 62.3 49 6 42.8
12:30 1023 30.21 853 25.19 16.8 62.3 48 6 42.8
12:35 1024 30.24 853 25.19 16.9 62.4 48 5.8 42.5
12:40 1024 30.24 853 25.19 17 62.6 48 6 42.7
12:45 1024 30.24 853 25.19 17.3 63.1 46 5.6 42.1
12:50 1024 30.24 853 25.19 17.5 63.4 46 5.9 42.6
12:55 1024 30.24 853 25.19 17.9 64.2 44 5.6 42.1
13:00 1024 30.24 853 25.19 18 64.4 45 6 42.9
13:05 1024 30.24 853 25.19 17.9 64.2 46 6.1 43
13:10 1023 30.21 853 25.19 17.8 64.1 45 6 42.8
13:15 1024 30.24 853 25.19 17.9 64.1 45 5.8 42.5
13:20 1024 30.24 853 25.19 18 64.4 44 5.6 42.2
13:25 1024 30.24 853 25.19 18.2 64.8 44 6 42.8
13:30 1024 30.24 853 25.19 18.2 64.7 43 5.5 42
13:35 1024 30.24 853 25.19 18 64.4 43 5.5 41.9
13:40 1024 30.24 853 25.19 17.9 64.2 44 5.5 42
13:45 1024 30.24 853 25.19 17.8 64 43 5.1 41.2
13:50 1024 30.24 853 25.19 17.9 64.2 43 5.2 41.4
13:55 1024 30.24 853 25.19 18 64.3 43 5.3 41.6
14:00 1024 30.24 853 25.19 17.9 64.2 44 5.4 41.8
14:05 1024 30.24 853 25.19 17.9 64.1 44 5.6 42.1
14:10 1024 30.24 853 25.19 17.8 64 45 5.7 42.2
14:15 1023 30.21 852 25.16 17.8 64 44 5.6 42.1
14:20 1023 30.21 852 25.16 17.8 64 47 6.5 43.7
14:25 1023 30.21 852 25.16 17.4 63.3 49 6.7 44
14:30 1022 30.18 852 25.16 17.5 63.6 47 6.1 43
14:35 1022 30.18 851 25.13 17.9 64.3 46 6.4 43.5
14:40 1022 30.18 852 25.16 18.3 65 46 6.6 43.8
14:45 1022 30.18 852 25.16 18.6 65.4 45 6.6 43.9
14:50 1022 30.18 852 25.16 18.6 65.5 45 6.7 44.1
14:55 1022 30.18 852 25.16 18.7 65.7 45 6.7 44
15:00 1023 30.21 852 25.16 18.8 65.8 46 7 44.6
15:05 1023 30.21 852 25.16 18.8 65.9 45 6.9 44.5
15:10 1023 30.21 852 25.16 19 66.2 45 7.1 44.7
15:15 1023 30.21 852 25.16 19.2 66.6 44 6.9 44.4
15:20 1023 30.21 852 25.16 19.4 66.9 44 7.1 44.8
15:25 1023 30.21 852 25.16 19.7 67.4 43 6.9 44.5
15:30 1023 30.21 852 25.16 19.7 67.5 43 7 44.6
15:35 1023 30.21 852 25.16 19.8 67.6 43 7.1 44.8
15:40 1023 30.21 852 25.16 19.6 67.3 44 7 44.7
15:45 1022 30.18 852 25.16 19.5 67.1 44 7.1 44.7
15:50 1022 30.18 852 25.16 19.4 67 44 7 44.7
15:55 1022 30.18 851 25.13 19.4 66.8 45 7.4 45.3
16:00 1022 30.18 851 25.13 19.4 66.8 45 7.1 44.8
16:05 1022 30.18 851 25.13 19.3 66.7 46 7.4 45.3
16:10 1022 30.18 851 25.13 19.2 66.5 46 7.6 45.6
16:15 1022 30.18 851 25.13 19.3 66.7 47 7.7 45.9
16:20 1022 30.18 851 25.13 19.2 66.6 47 7.8 46
16:25 1022 30.18 851 25.13 19.3 66.8 47 7.7 45.9
16:30 1022 30.18 851 25.13 19.5 67.1 48 8.2 46.8
16:35 1022 30.18 851 25.13 19.5 67.1 48 8.2 46.8
16:40 1022 30.18 851 25.13 19.4 67 47 8.1 46.5
16:45 1022 30.18 851 25.13 19.8 67.6 48 8.6 47.4
16:50 1022 30.18 851 25.13 19.5 67 49 8.7 47.6
16:55 1022 30.18 851 25.13 19 66.2 51 8.8 47.9
17:00 1022 30.18 851 25.13 18.8 65.8 52 8.9 48
17:05 1022 30.18 851 25.13 18.6 65.6 53 8.9 48
17:10 1022 30.18 851 25.13 18.6 65.4 53 8.8 47.9
17:15 1022 30.18 851 25.13 18.6 65.4 53 8.9 48
17:20 1022 30.18 851 25.13 18.5 65.4 53 9 48.2
17:25 1022 30.18 851 25.13 18.4 65 55 9.2 48.5
17:30 1022 30.18 851 25.13 18.1 64.6 55 9.1 48.4
17:35 1022 30.18 851 25.13 17.8 64.1 56 8.9 48.1
17:40 1022 30.18 851 25.13 17.7 63.8 56 8.9 48
17:45 1021 30.15 851 25.13 17.5 63.5 56 8.8 47.8
17:50 1021 30.15 851 25.13 17.4 63.4 57 8.8 47.8
17:55 1021 30.15 851 25.13 17.4 63.2 57 8.8 47.8
18:00 1022 30.18 851 25.13 17.3 63.1 57 8.8 47.9
18:05 1022 30.18 851 25.13 17.1 62.8 58 8.8 47.9
18:10 1022 30.18 851 25.13 17 62.7 58 8.8 47.9
18:15 1022 30.18 851 25.13 16.9 62.4 59 8.9 48.1
18:20 1022 30.18 851 25.13 16.9 62.4 59 9 48.2
18:25 1022 30.18 851 25.13 16.8 62.2 60 9.1 48.3
18:30 1022 30.18 851 25.13 16.7 62.1 61 9.2 48.6
18:35 1022 30.18 851 25.13 16.7 62 61 9.3 48.7
18:40 1022 30.18 851 25.13 16.7 62 62 9.4 49
18:45 1022 30.18 851 25.13 16.6 61.9 62 9.4 48.9
18:50 1022 30.18 851 25.13 16.6 61.8 62 9.4 48.9
18:55 1022 30.18 851 25.13 16.5 61.7 62 9.2 48.6
19:00 1022 30.18 851 25.13 16.4 61.6 62 9.3 48.7
19:05 1022 30.18 851 25.13 16.3 61.4 62 9.2 48.5
19:10 1022 30.18 851 25.13 16.3 61.3 63 9.3 48.8
19:15 1022 30.18 851 25.13 16.2 61.2 63 9.3 48.8
19:20 1022 30.18 851 25.13 16.1 61 64 9.3 48.8
19:25 1022 30.18 851 25.13 16.1 60.9 64 9.4 48.9
19:30 1022 30.18 851 25.13 16 60.8 64 9.4 48.9
19:35 1022 30.18 851 25.13 16 60.8 64 9.4 48.9
19:40 1022 30.18 851 25.13 15.9 60.7 65 9.4 48.9
19:45 1022 30.18 851 25.13 15.9 60.7 64 9.3 48.8
19:50 1022 30.18 851 25.13 15.9 60.6 64 9.3 48.7
19:55 1022 30.18 852 25.16 15.9 60.5 65 9.4 48.9
20:00 1022 30.18 852 25.16 15.8 60.4 66 9.5 49
20:05 1023 30.21 852 25.16 15.8 60.4 66 9.5 49.2
20:10 1023 30.21 852 25.16 15.7 60.3 66 9.5 49
20:15 1023 30.21 852 25.16 15.7 60.3 66 9.4 49
20:20 1023 30.21 852 25.16 15.7 60.2 66 9.3 48.8
20:25 1023 30.21 852 25.16 15.7 60.2 66 9.4 48.9
20:30 1023 30.21 852 25.16 15.6 60.1 66 9.4 48.9
20:35 1023 30.21 852 25.16 15.6 60.1 66 9.3 48.8
20:40 1023 30.21 852 25.16 15.6 60 66 9.3 48.8
20:45 1024 30.24 853 25.19 15.5 60 66 9.3 48.8
20:50 1024 30.24 853 25.19 15.5 59.9 66 9.3 48.8
20:55 1024 30.24 853 25.19 15.4 59.7 67 9.3 48.7
21:00 1024 30.24 853 25.19 15.4 59.7 67 9.3 48.8
21:05 1024 30.24 853 25.19 15.3 59.6 67 9.4 48.9
21:10 1024 30.24 853 25.19 15.3 59.5 67 9.4 48.8
21:15 1024 30.24 853 25.19 15.3 59.5 68 9.4 48.9
21:20 1024 30.24 853 25.19 15.3 59.5 68 9.4 48.9
21:25 1024 30.24 853 25.19 15.2 59.4 69 9.5 49.1
21:30 1024 30.24 853 25.19 15.2 59.3 68 9.4 48.9
21:35 1024 30.24 853 25.19 15.1 59.2 69 9.4 49
21:40 1024 30.24 853 25.19 15.1 59.2 68 9.4 48.9
21:45 1024 30.24 853 25.19 15.1 59.2 68 9.4 48.9
21:50 1024 30.24 853 25.19 15.1 59.2 68 9.4 48.9
21:55 1024 30.24 853 25.19 15.1 59.1 68 9.3 48.8
22:00 1024 30.24 853 25.19 15.1 59.1 68 9.2 48.6
22:05 1024 30.24 853 25.19 15.1 59.1 68 9.3 48.7
22:10 1024 30.24 853 25.19 15.1 59.1 67 9.1 48.4
22:15 1024 30.24 853 25.19 15.1 59.1 67 9.1 48.4
22:20 1024 30.24 853 25.19 15.1 59.1 67 9.1 48.4
22:25 1024 30.24 853 25.19 15 59 67 9.1 48.3
22:30 1024 30.24 853 25.19 15 58.9 68 9.1 48.4
22:35 1024 30.24 853 25.19 15 58.9 67 9 48.3
22:40 1024 30.24 853 25.19 14.9 58.9 68 9.1 48.4
22:45 1024 30.24 853 25.19 14.9 58.9 68 9.1 48.4
22:50 1024 30.24 853 25.19 14.9 58.8 68 9.2 48.5
22:55 1024 30.24 853 25.19 14.9 58.8 68 9.2 48.6
23:00 1024 30.24 853 25.19 14.8 58.7 69 9.2 48.6
23:05 1024 30.24 853 25.19 14.8 58.6 69 9.3 48.7
23:10 1024 30.24 853 25.19 14.8 58.6 69 9.3 48.8
23:15 1024 30.24 853 25.19 14.7 58.5 70 9.4 48.9
23:20 1024 30.24 854 25.22 14.7 58.4 71 9.4 49
23:25 1024 30.24 853 25.19 14.6 58.4 70 9.4 48.8
23:30 1024 30.24 853 25.19 14.7 58.4 70 9.4 48.9
23:35 1024 30.24 853 25.19 14.7 58.4 70 9.4 48.8
23:40 1024 30.24 853 25.19 14.7 58.4 70 9.3 48.8
23:45 1024 30.24 854 25.22 14.7 58.5 70 9.4 48.9
23:50 1024 30.24 854 25.22 14.8 58.6 70 9.4 49
23:55 1025 30.27 854 25.22 14.8 58.6 70 9.5 49.1
24:00 1025 30.27 854 25.22 14.8 58.6 71 9.5 49.2